Time;durP1;ratioP1;P1;durP2;ratioP2;P2;SDS_P1;SDS_P2;PMS_P1;PMS_P2;Temp;Humidity;BMP_temperature;BMP_pressure;BME280_temperature;BME280_humidity;BME280_pressure;Samples;Min_cycle;Max_cycle;Signal;HPM_P1;HPM_P2
2022/09/30 00:04:06;;;;;;;5.60;3.97;;;;;;;9.05;48.83;99696.88;10419122;28;20180;-78
2022/09/30 00:09:28;;;;;;;5.33;4.50;;;;;;;8.92;48.79;99703.56;10411619;28;20238;-78
2022/09/30 00:14:50;;;;;;;5.33;4.30;;;;;;;8.96;48.43;99709.34;10403357;28;20228;-79
2022/09/30 00:20:13;;;;;;;5.37;3.93;;;;;;;9.13;48.09;99712.06;10417989;28;20188;-79
2022/09/30 00:25:35;;;;;;;6.13;4.30;;;;;;;9.06;47.91;99718.22;10417693;28;20224;-78
2022/09/30 00:31:04;;;;;;;6.67;3.80;;;;;;;9.03;48.91;99723.69;10418452;28;20184;-78
2022/09/30 00:36:26;;;;;;;6.60;3.90;;;;;;;8.71;48.95;99719.56;10417548;28;20208;-78
2022/09/30 00:41:51;;;;;;;7.23;3.80;;;;;;;8.95;48.23;99718.94;10417213;28;20215;-78
2022/09/30 00:47:43;;;;;;;4.57;3.67;;;;;;;9.07;48.00;99722.66;10417447;28;20488;-78
2022/09/30 00:53:11;;;;;;;5.43;3.80;;;;;;;9.01;48.05;99715.59;10417691;28;20598;-78
2022/09/30 00:58:37;;;;;;;6.60;3.80;;;;;;;9.17;48.01;99720.63;10417143;28;20740;-78
2022/09/30 01:04:01;;;;;;;5.57;3.60;;;;;;;8.59;49.17;99711.00;10417029;28;20215;-79
2022/09/30 01:09:23;;;;;;;4.87;3.73;;;;;;;8.93;48.28;99716.47;10416592;28;20192;-78
2022/09/30 01:14:47;;;;;;;6.07;3.73;;;;;;;8.36;49.33;99719.66;10402492;28;20224;-78
2022/09/30 01:20:51;;;;;;;4.17;3.77;;;;;;;7.92;50.90;99720.13;10416685;28;20215;-78
2022/09/30 01:26:24;;;;;;;4.47;3.80;;;;;;;8.24;49.96;99727.16;10408586;28;20519;-78
2022/09/30 01:31:52;;;;;;;7.77;4.33;;;;;;;8.55;48.92;99724.91;10410616;28;20211;-78
2022/09/30 01:37:25;;;;;;;4.07;3.53;;;;;;;8.25;50.02;99729.63;10424153;28;20255;-78
2022/09/30 01:42:55;;;;;;;3.87;3.53;;;;;;;8.38;49.03;99734.19;10423768;28;20473;-79
2022/09/30 01:48:21;;;;;;;7.70;3.73;;;;;;;8.22;49.27;99738.72;10423822;28;20185;-78
2022/09/30 01:53:50;;;;;;;4.17;3.60;;;;;;;8.54;48.76;99736.47;10423360;28;20549;-78
2022/09/30 01:59:20;;;;;;;4.30;3.30;;;;;;;8.36;49.22;99735.69;10423264;28;20204;-79
2022/09/30 02:04:50;;;;;;;4.87;3.60;;;;;;;7.70;50.53;99746.41;10423028;28;20185;-78
2022/09/30 02:10:16;;;;;;;3.57;3.27;;;;;;;8.40;48.51;99731.88;10409075;28;20192;-78
2022/09/30 02:15:43;;;;;;;4.33;3.50;;;;;;;8.54;47.78;99736.47;10422480;28;20270;-79
2022/09/30 02:21:06;;;;;;;4.10;3.50;;;;;;;7.63;50.23;99746.06;10422408;28;20687;-78
2022/09/30 02:26:32;;;;;;;4.03;3.30;;;;;;;7.89;49.83;99746.03;10408434;28;20225;-79
2022/09/30 02:31:59;;;;;;;4.50;3.50;;;;;;;7.85;50.01;99742.25;10405630;28;20505;-79
2022/09/30 02:37:31;;;;;;;5.43;3.27;;;;;;;8.06;49.11;99737.59;10421226;28;20242;-78
2022/09/30 02:42:53;;;;;;;6.23;3.50;;;;;;;7.93;49.39;99738.63;10418154;28;20197;-79
2022/09/30 02:48:36;;;;;;;4.13;3.20;;;;;;;7.94;49.42;99749.53;10420300;28;20189;-79
2022/09/30 02:54:12;;;;;;;4.30;3.20;;;;;;;8.26;48.89;99750.91;10417278;28;20212;-79
2022/09/30 02:59:34;;;;;;;3.57;3.20;;;;;;;8.51;48.04;99752.00;10436451;28;20192;-79
2022/09/30 03:04:56;;;;;;;4.40;3.20;;;;;;;8.26;48.45;99742.50;10403950;28;20250;-79
2022/09/30 03:10:18;;;;;;;6.93;4.17;;;;;;;7.82;48.97;99754.97;10421114;28;20189;-79
2022/09/30 03:15:59;;;;;;;5.80;3.10;;;;;;;7.55;49.89;99767.34;10417835;28;20224;-79
2022/09/30 03:21:36;;;;;;;3.50;3.20;;;;;;;7.79;49.24;99766.84;10418692;28;20209;-79
2022/09/30 03:27:13;;;;;;;3.80;3.50;;;;;;;7.36;49.85;99769.59;10448934;28;20599;-79
2022/09/30 03:32:54;;;;;;;5.20;3.80;;;;;;;7.50;49.54;99775.88;10397733;28;20207;-81
2022/09/30 03:38:38;;;;;;;4.57;3.43;;;;;;;7.79;49.50;99771.63;10419755;28;20265;-81
2022/09/30 03:44:06;;;;;;;3.90;3.37;;;;;;;7.88;49.09;99776.09;10434396;28;20588;-79
2022/09/30 03:49:55;;;;;;;5.40;3.40;;;;;;;7.19;50.27;99778.00;10412626;28;20246;-81
2022/09/30 03:55:18;;;;;;;4.70;3.10;;;;;;;7.64;49.18;99781.38;10428312;28;20701;-78
2022/09/30 04:00:46;;;;;;;5.53;3.50;;;;;;;7.79;48.60;99789.31;10419979;28;20193;-79
2022/09/30 04:06:11;;;;;;;3.63;3.07;;;;;;;7.30;50.23;99794.19;10414769;28;20184;-79
2022/09/30 04:11:33;;;;;;;5.30;3.87;;;;;;;7.41;49.31;99810.69;10402440;28;20470;-78
2022/09/30 04:16:56;;;;;;;4.87;3.93;;;;;;;7.53;49.21;99808.06;10426568;28;20718;-79
2022/09/30 04:22:18;;;;;;;4.00;3.60;;;;;;;7.22;49.65;99824.97;10433420;28;20253;-79
2022/09/30 04:27:40;;;;;;;4.73;3.70;;;;;;;7.33;49.73;99827.13;10417557;28;20529;-78
2022/09/30 04:33:02;;;;;;;8.17;4.00;;;;;;;6.79;50.76;99825.66;10434748;28;20257;-78
2022/09/30 04:38:25;;;;;;;8.13;3.90;;;;;;;7.65;48.89;99830.72;10423838;28;20290;-79
2022/09/30 04:43:47;;;;;;;5.20;4.30;;;;;;;7.55;48.55;99834.66;10404632;28;20204;-78
2022/09/30 04:49:09;;;;;;;4.67;4.23;;;;;;;7.28;49.18;99848.91;10417197;28;20258;-79
2022/09/30 04:54:31;;;;;;;6.07;4.03;;;;;;;7.56;49.00;99847.53;10438474;28;20270;-79
2022/09/30 04:59:53;;;;;;;7.00;4.20;;;;;;;7.28;49.33;99857.31;10423142;28;20262;-79
2022/09/30 05:05:16;;;;;;;5.97;4.23;;;;;;;7.65;48.88;99848.38;10424212;28;20644;-79
2022/09/30 05:10:38;;;;;;;4.97;4.40;;;;;;;7.53;49.30;99847.31;10421043;28;20586;-78
2022/09/30 05:16:01;;;;;;;6.03;4.53;;;;;;;7.34;49.28;99851.22;10417309;28;20226;-78
2022/09/30 05:21:23;;;;;;;7.17;4.90;;;;;;;7.55;48.79;99854.28;10427857;28;20197;-79
2022/09/30 05:26:45;;;;;;;6.40;4.70;;;;;;;7.46;49.79;99861.81;10425203;28;20216;-78
2022/09/30 05:32:07;;;;;;;6.63;5.27;;;;;;;7.62;50.07;99863.03;10421954;28;20235;-79
2022/09/30 05:37:29;;;;;;;5.73;5.23;;;;;;;7.33;50.09;99872.00;10410321;28;20216;-78
2022/09/30 05:42:51;;;;;;;7.50;5.30;;;;;;;7.38;50.26;99868.22;10424530;28;20188;-79
2022/09/30 05:48:13;;;;;;;8.00;6.20;;;;;;;7.35;50.87;99869.69;10410126;28;20184;-79
2022/09/30 05:53:40;;;;;;;7.90;6.23;;;;;;;7.53;50.33;99873.38;10423556;28;20260;-79
2022/09/30 05:59:02;;;;;;;9.13;6.17;;;;;;;7.77;49.69;99889.78;10424083;28;20651;-79
2022/09/30 06:04:23;;;;;;;9.23;6.93;;;;;;;8.20;48.99;99905.84;10417664;28;20193;-78
2022/09/30 06:09:45;;;;;;;9.23;6.70;;;;;;;7.88;49.48;99913.56;10406579;28;20216;-79
2022/09/30 06:15:08;;;;;;;8.20;7.10;;;;;;;8.33;49.02;99910.47;10420283;28;20220;-79
2022/09/30 06:20:31;;;;;;;7.57;6.67;;;;;;;8.35;48.95;99900.56;10421183;28;20192;-79
2022/09/30 06:25:53;;;;;;;11.13;6.97;;;;;;;8.20;48.80;99906.69;10432839;28;20212;-79
2022/09/30 06:31:16;;;;;;;9.97;7.40;;;;;;;8.34;48.98;99917.75;10402764;28;20192;-79
2022/09/30 06:36:38;;;;;;;14.87;7.40;;;;;;;8.55;49.08;99926.31;10416743;28;20286;-79
2022/09/30 06:41:59;;;;;;;11.53;7.53;;;;;;;8.95;48.44;99926.94;10418765;28;20188;-78
2022/09/30 06:47:22;;;;;;;10.87;7.93;;;;;;;9.08;48.17;99929.53;10417574;28;20338;-79
2022/09/30 06:52:44;;;;;;;10.67;7.63;;;;;;;9.22;48.16;99925.69;10424315;28;20229;-79
2022/09/30 06:58:12;;;;;;;10.43;8.27;;;;;;;9.46;47.87;99937.16;10410128;28;20294;-78
2022/09/30 07:03:34;;;;;;;10.13;8.43;;;;;;;9.69;48.22;99941.38;10412047;28;20570;-81
2022/09/30 07:08:57;;;;;;;11.43;8.43;;;;;;;9.95;47.11;99943.22;10416360;28;20196;-79
2022/09/30 07:14:19;;;;;;;11.67;8.70;;;;;;;10.31;46.31;99949.06;10417210;28;20282;-79
2022/09/30 07:19:41;;;;;;;10.90;8.67;;;;;;;10.63;46.10;99946.69;10380171;28;20657;-79
2022/09/30 07:25:05;;;;;;;11.47;8.90;;;;;;;10.45;47.58;99952.44;10408065;28;20228;-79
2022/09/30 07:30:28;;;;;;;11.93;9.70;;;;;;;10.73;47.02;99957.53;10416190;28;20200;-79
2022/09/30 07:35:54;;;;;;;11.97;8.73;;;;;;;10.57;48.20;99962.94;10388513;28;20552;-79
2022/09/30 07:41:23;;;;;;;17.23;11.00;;;;;;;10.99;47.76;99960.94;10406928;28;20196;-79
2022/09/30 07:46:45;;;;;;;16.33;10.63;;;;;;;11.11;48.06;99954.50;10419742;28;20266;-79
2022/09/30 07:52:09;;;;;;;12.53;8.53;;;;;;;11.02;48.21;99959.41;10417067;28;20200;-79
2022/09/30 07:57:31;;;;;;;9.40;7.37;;;;;;;11.26;46.34;99965.94;10420648;28;20221;-79
2022/09/30 08:02:53;;;;;;;8.70;5.70;;;;;;;10.63;46.93;99969.25;10411894;28;20188;-79
2022/09/30 08:08:16;;;;;;;10.47;6.40;;;;;;;11.44;45.57;99974.22;10415886;28;20208;-79
2022/09/30 08:13:38;;;;;;;11.13;7.87;;;;;;;12.64;44.75;99963.22;10388492;28;20220;-79
2022/09/30 08:19:01;;;;;;;11.73;8.00;;;;;;;12.50;45.61;99972.09;10399972;28;20251;-79
2022/09/30 08:24:24;;;;;;;10.57;7.77;;;;;;;12.76;44.38;99973.66;10414159;28;20302;-79
2022/09/30 08:29:46;;;;;;;12.00;7.40;;;;;;;12.29;45.06;99977.88;10413197;28;20204;-79
2022/09/30 08:35:08;;;;;;;9.17;7.80;;;;;;;12.46;44.30;99968.34;10411330;28;20248;-79
2022/09/30 08:40:32;;;;;;;10.17;6.83;;;;;;;11.57;45.64;99979.56;10415730;28;20609;-79
2022/09/30 08:46:21;;;;;;;9.87;6.70;;;;;;;12.85;44.24;99980.00;10416036;28;20196;-78
2022/09/30 08:51:48;;;;;;;10.80;7.47;;;;;;;13.68;42.13;99979.88;10376263;28;20468;-79
2022/09/30 08:57:11;;;;;;;9.73;7.00;;;;;;;13.37;43.28;99977.03;10385267;28;20209;-79
2022/09/30 09:02:36;;;;;;;8.87;7.37;;;;;;;12.77;44.45;99978.16;10403747;28;20314;-79
2022/09/30 09:08:04;;;;;;;8.20;6.23;;;;;;;12.41;44.81;99979.06;10415584;28;20243;-79
2022/09/30 09:13:46;;;;;;;7.93;5.90;;;;;;;12.34;44.35;99983.28;10417634;28;20200;-78
2022/09/30 09:19:10;;;;;;;9.60;6.07;;;;;;;12.67;44.93;99980.28;10401635;28;20262;-78
2022/09/30 09:24:41;;;;;;;9.73;6.27;;;;;;;12.81;43.58;99984.72;10398851;28;20529;-79
2022/09/30 09:30:07;;;;;;;9.33;5.87;;;;;;;13.27;43.32;99994.56;10409119;28;20605;-79
2022/09/30 09:35:41;;;;;;;6.37;5.30;;;;;;;12.60;43.69;99985.72;10400807;28;20247;-79
2022/09/30 09:41:25;;;;;;;9.63;5.57;;;;;;;13.56;42.28;99981.97;10415041;28;20251;-79
2022/09/30 09:46:49;;;;;;;10.40;5.37;;;;;;;13.33;42.29;99978.94;10414107;28;20258;-79
2022/09/30 09:52:11;;;;;;;7.67;4.80;;;;;;;13.02;42.36;99974.03;10388051;28;20204;-79
2022/09/30 09:57:33;;;;;;;9.10;4.87;;;;;;;13.11;42.04;99971.03;10418191;28;20220;-79
2022/09/30 10:03:03;;;;;;;7.27;3.50;;;;;;;14.63;39.24;99960.69;10416422;28;20196;-79
2022/09/30 10:08:25;;;;;;;6.03;3.63;;;;;;;14.57;39.38;99967.88;10409185;28;20196;-79
2022/09/30 10:13:49;;;;;;;3.70;3.07;;;;;;;14.54;38.16;99976.28;10422167;28;20220;-79
2022/09/30 10:19:19;;;;;;;5.57;3.53;;;;;;;15.26;38.30;99968.91;10422464;28;20548;-79
2022/09/30 10:24:41;;;;;;;4.53;3.30;;;;;;;12.96;40.95;99981.13;10421208;28;20278;-79
2022/09/30 10:30:03;;;;;;;7.20;3.50;;;;;;;14.85;38.59;99976.19;10418789;28;20494;-80
2022/09/30 10:35:25;;;;;;;5.40;3.47;;;;;;;14.71;37.19;99967.38;10404350;28;20501;-79
2022/09/30 10:40:49;;;;;;;5.23;3.70;;;;;;;14.31;37.89;99965.69;10414478;28;20247;-79
2022/09/30 10:46:23;;;;;;;8.27;4.27;;;;;;;13.27;40.34;99981.22;10420800;28;20215;-79
2022/09/30 10:51:45;;;;;;;7.43;3.50;;;;;;;13.73;39.07;99970.28;10424903;28;20232;-79
2022/09/30 10:57:35;;;;;;;6.27;4.10;;;;;;;14.07;38.24;99963.88;10436637;28;20563;-79
2022/09/30 11:03:16;;;;;;;4.23;3.33;;;;;;;14.72;35.75;99966.97;10448419;28;20192;-79
2022/09/30 11:08:45;;;;;;;4.40;2.42;;;;;;;14.00;36.85;99969.38;10421892;28;20578;-79
2022/09/30 11:14:10;;;;;;;3.97;3.13;;;;;;;13.65;37.86;99977.78;10417536;28;20663;-79
2022/09/30 11:19:50;;;;;;;8.80;2.83;;;;;;;15.46;36.50;99978.22;10419107;28;20678;-79
2022/09/30 11:25:14;;;;;;;5.97;3.00;;;;;;;15.55;36.26;99980.81;10404147;28;20228;-79
2022/09/30 11:30:46;;;;;;;6.70;2.83;;;;;;;15.37;36.57;99991.84;10417207;28;20192;-79
2022/09/30 11:36:16;;;;;;;5.35;2.88;;;;;;;15.85;35.99;99976.91;10416605;28;20270;-79
2022/09/30 11:41:42;;;;;;;8.50;2.50;;;;;;;14.43;37.31;99981.72;10416822;28;20196;-80
2022/09/30 11:47:12;;;;;;;3.70;2.23;;;;;;;15.11;36.83;99978.31;10405613;28;20763;-79
2022/09/30 11:52:46;;;;;;;5.10;2.57;;;;;;;15.01;36.28;99981.78;10419477;28;20192;-79
2022/09/30 11:58:13;;;;;;;2.47;2.00;;;;;;;15.24;35.70;99979.81;10418738;28;20234;-79
2022/09/30 12:03:39;;;;;;;4.13;2.83;;;;;;;16.23;34.64;99975.09;10403296;28;20254;-79
2022/09/30 12:09:21;;;;;;;5.37;2.10;;;;;;;16.39;34.17;99981.44;10413845;28;20581;-80
2022/09/30 12:14:50;;;;;;;3.10;2.40;;;;;;;15.26;35.48;99970.91;10414543;28;20565;-79
2022/09/30 12:20:24;;;;;;;4.70;2.50;;;;;;;16.44;33.63;99966.06;10411985;28;20258;-80
2022/09/30 12:25:58;;;;;;;3.73;2.10;;;;;;;16.48;33.46;99952.72;10417186;28;20220;-79
2022/09/30 12:31:41;;;;;;;3.73;2.27;;;;;;;15.38;34.86;99953.69;10414416;28;20528;-79
2022/09/30 12:37:27;;;;;;;4.77;2.47;;;;;;;15.54;34.05;99945.91;10413019;28;20227;-79
2022/09/30 12:43:30;;;;;;;3.50;2.37;;;;;;;15.90;34.09;99935.97;10404992;28;20227;-78
2022/09/30 12:48:56;;;;;;;3.53;2.03;;;;;;;16.64;33.01;99924.88;10426761;28;20196;-79
2022/09/30 12:54:34;;;;;;;2.63;2.00;;;;;;;15.36;34.43;99925.72;10401326;28;20196;-78
2022/09/30 13:00:01;;;;;;;3.22;1.73;;;;;;;16.08;32.17;99907.81;10403199;28;20522;-78
2022/09/30 13:05:26;;;;;;;6.45;1.80;;;;;;;15.97;32.39;99904.81;10415270;28;20250;-79
2022/09/30 13:10:59;;;;;;;2.07;1.63;;;;;;;14.80;34.33;99912.06;10416178;28;20597;-79
2022/09/30 13:16:56;;;;;;;2.23;1.83;;;;;;;15.75;32.42;99905.69;10393147;28;20252;-78
2022/09/30 13:27:40;;;;;;;1.83;1.17;;;;;;;16.07;30.79;99900.50;10423482;28;20224;-78
2022/09/30 13:33:02;;;;;;;2.23;1.13;;;;;;;16.54;30.39;99886.53;10421744;28;20200;-78
2022/09/30 13:38:37;;;;;;;3.20;1.70;;;;;;;16.53;30.88;99878.41;10421597;28;20256;-78
2022/09/30 13:44:09;;;;;;;3.72;1.10;;;;;;;15.75;31.50;99894.34;10419586;28;20258;-78
2022/09/30 13:49:46;;;;;;;3.22;1.10;;;;;;;16.28;30.10;99883.75;10422022;28;20254;-79
2022/09/30 13:55:16;;;;;;;2.77;1.37;;;;;;;16.57;31.32;99876.41;10421519;28;20613;-78
2022/09/30 14:00:56;;;;;;;1.77;1.27;;;;;;;16.10;31.39;99889.19;10416616;28;20309;-79
2022/09/30 14:06:37;;;;;;;3.25;1.75;;;;;;;15.66;31.83;99890.91;10419596;28;20239;-78
2022/09/30 14:12:33;;;;;;;3.20;1.60;;;;;;;16.98;31.09;99883.03;10418962;28;20196;-79
2022/09/30 14:18:04;;;;;;;2.80;1.50;;;;;;;16.52;31.54;99882.47;10417696;28;20309;-78
2022/09/30 14:23:27;;;;;;;2.28;1.58;;;;;;;15.53;32.76;99881.78;10420991;28;20197;-79
2022/09/30 14:29:20;;;;;;;4.22;2.05;;;;;;;17.15;31.45;99865.31;10422982;28;20286;-79
2022/09/30 14:34:44;;;;;;;2.60;1.90;;;;;;;16.08;32.47;99856.66;10425085;28;20592;-79
2022/09/30 14:40:12;;;;;;;4.57;1.85;;;;;;;15.42;33.18;99861.69;10424176;28;20224;-79
2022/09/30 14:45:37;;;;;;;4.00;2.03;;;;;;;15.97;32.44;99850.81;10417931;28;20437;-79
2022/09/30 14:51:03;;;;;;;1.83;1.30;;;;;;;15.63;32.91;99840.56;10418317;28;20235;-80
2022/09/30 14:56:30;;;;;;;2.87;2.20;;;;;;;16.30;32.68;99841.53;10418925;28;20313;-79
2022/09/30 15:02:00;;;;;;;3.53;1.67;;;;;;;15.78;32.90;99842.41;10414441;28;20274;-80
2022/09/30 15:07:22;;;;;;;3.87;1.77;;;;;;;16.61;31.80;99836.63;10411839;28;20220;-79
2022/09/30 15:12:45;;;;;;;3.23;1.43;;;;;;;16.11;32.42;99833.13;10408463;28;20227;-79
2022/09/30 15:18:34;;;;;;;2.53;1.40;;;;;;;15.33;33.51;99838.44;10408365;28;20251;-79
2022/09/30 15:23:57;;;;;;;3.50;0.97;;;;;;;16.96;32.49;99828.50;10416829;28;20289;-79
2022/09/30 15:29:19;;;;;;;3.33;1.60;;;;;;;15.71;32.85;99830.94;10397750;28;20269;-79
2022/09/30 15:34:44;;;;;;;3.57;1.40;;;;;;;16.08;32.34;99829.03;10410229;28;20221;-79
2022/09/30 15:45:58;;;;;;;1.97;1.10;;;;;;;15.81;33.38;99818.91;10412920;28;20390;-80
2022/09/30 15:51:52;;;;;;;1.63;0.80;;;;;;;16.53;32.97;99810.97;10403914;28;20286;-79
2022/09/30 15:57:36;;;;;;;2.13;1.20;;;;;;;16.56;32.38;99820.72;10384381;28;20624;-80
2022/09/30 16:03:17;;;;;;;4.70;1.13;;;;;;;16.31;32.61;99819.59;10398962;28;20293;-79
2022/09/30 16:08:49;;;;;;;2.80;0.80;;;;;;;16.87;32.44;99813.75;10407247;28;20266;-80
2022/09/30 16:14:20;;;;;;;1.90;0.82;;;;;;;16.82;32.82;99823.44;10392243;28;20311;-79
2022/09/30 16:19:49;;;;;;;0.97;0.87;;;;;;;15.86;33.54;99830.78;10405317;28;20243;-79
2022/09/30 16:25:32;;;;;;;2.20;0.87;;;;;;;16.83;32.83;99816.53;10408512;28;20546;-79
2022/09/30 16:30:55;;;;;;;2.37;1.03;;;;;;;16.26;32.95;99828.50;10416424;28;20265;-80
2022/09/30 16:36:17;;;;;;;2.53;0.70;;;;;;;15.97;33.91;99828.06;10400594;28;20253;-79
2022/09/30 16:41:39;;;;;;;1.57;0.60;;;;;;;16.43;33.51;99833.56;10407635;28;20218;-79
2022/09/30 16:47:01;;;;;;;1.20;1.00;;;;;;;16.52;32.98;99831.25;10401991;28;20223;-79
2022/09/30 16:52:24;;;;;;;5.43;1.20;;;;;;;16.24;33.78;99834.56;10409978;28;20200;-79
2022/09/30 16:57:47;;;;;;;2.07;1.00;;;;;;;16.14;35.09;99832.38;10417103;28;20297;-78
2022/09/30 17:03:12;;;;;;;2.50;1.10;;;;;;;16.02;36.06;99832.63;10427976;28;20228;-79
2022/09/30 17:08:35;;;;;;;4.72;1.90;;;;;;;15.73;37.13;99845.59;10410854;28;20223;-79
2022/09/30 17:13:57;;;;;;;6.03;2.40;;;;;;;16.00;35.89;99833.00;10410436;28;20310;-75
2022/09/30 17:19:20;;;;;;;5.67;3.80;;;;;;;15.29;36.49;99831.84;10418133;28;20623;-79
2022/09/30 17:24:42;;;;;;;7.13;3.90;;;;;;;15.29;36.37;99834.69;10422984;28;20314;-79
2022/09/30 17:30:05;;;;;;;7.43;4.40;;;;;;;15.59;35.32;99834.81;10423273;28;21487;-79
2022/09/30 17:35:27;;;;;;;4.93;3.83;;;;;;;15.32;36.09;99836.78;10416636;28;20228;-80
2022/09/30 17:46:42;;;;;;;4.93;1.77;;;;;;;15.02;38.89;99856.53;10414209;28;20228;-81
2022/09/30 17:52:04;;;;;;;3.20;1.73;;;;;;;15.08;37.99;99846.53;10416767;28;20587;-80
2022/09/30 17:57:27;;;;;;;3.20;1.40;;;;;;;14.58;38.41;99844.72;10401167;28;20324;-80
2022/09/30 18:02:49;;;;;;;2.67;1.63;;;;;;;14.42;38.30;99821.31;10402248;28;20220;-80
2022/09/30 18:08:12;;;;;;;1.90;1.40;;;;;;;14.62;37.77;99831.41;10403430;28;20225;-80
2022/09/30 18:13:34;;;;;;;4.47;1.50;;;;;;;14.59;38.21;99835.00;10406719;28;20260;-80
2022/09/30 18:19:02;;;;;;;3.13;1.80;;;;;;;14.73;38.14;99832.44;10403291;28;20252;-81
2022/09/30 18:24:13;;;;;;;4.77;1.33;;;;;;;14.53;38.05;99822.34;10401930;28;20240;-79
2022/09/30 18:29:35;;;;;;;2.33;1.50;;;;;;;13.92;39.54;99820.22;10405454;28;20220;-80
2022/09/30 18:34:57;;;;;;;2.43;1.60;;;;;;;13.23;41.06;99821.81;10389807;28;20286;-79
2022/09/30 18:40:24;;;;;;;3.53;2.50;;;;;;;13.72;39.99;99825.03;10370609;28;20354;-79
2022/09/30 18:45:56;;;;;;;10.43;8.40;;;;;;;13.13;41.17;99838.50;10396837;28;20228;-79
2022/09/30 18:51:18;;;;;;;14.80;12.53;;;;;;;13.09;41.41;99832.75;10389061;28;20224;-79
2022/09/30 18:56:43;;;;;;;5.67;4.50;;;;;;;12.96;41.05;99826.34;10401193;28;20256;-79
2022/09/30 19:02:05;;;;;;;11.73;6.67;;;;;;;13.47;40.29;99823.63;10403105;28;20586;-78
2022/09/30 19:07:27;;;;;;;6.03;4.60;;;;;;;13.27;40.39;99827.56;10371377;28;20221;-80
2022/09/30 19:12:50;;;;;;;4.40;3.00;;;;;;;13.02;40.98;99829.75;10377937;28;20650;-80
2022/09/30 19:18:12;;;;;;;5.37;3.67;;;;;;;12.47;42.46;99828.66;10377299;28;20786;-81
2022/09/30 19:23:35;;;;;;;3.83;2.37;;;;;;;12.84;41.40;99825.63;10372430;28;20283;-79
2022/09/30 19:28:58;;;;;;;2.80;2.30;;;;;;;12.59;41.85;99814.47;10382557;28;20254;-80
2022/09/30 19:34:20;;;;;;;1.93;1.73;;;;;;;12.82;41.07;99806.19;10369884;28;20948;-80
2022/09/30 19:39:42;;;;;;;2.30;2.10;;;;;;;12.78;40.79;99799.59;10366249;28;20275;-80
2022/09/30 19:45:06;;;;;;;1.43;1.20;;;;;;;13.10;40.11;99796.78;10368631;28;20224;-80
2022/09/30 19:50:28;;;;;;;2.23;1.27;;;;;;;12.85;40.15;99790.50;10375324;28;20221;-79
2022/09/30 19:56:05;;;;;;;2.73;1.20;;;;;;;13.77;37.74;99783.44;10382314;28;20258;-80
2022/09/30 20:01:28;;;;;;;1.20;0.90;;;;;;;13.70;37.99;99784.09;10385751;28;20240;-80
2022/09/30 20:06:52;;;;;;;1.30;0.83;;;;;;;13.56;38.16;99783.75;10380166;28;20804;-79
2022/09/30 20:12:14;;;;;;;1.53;1.20;;;;;;;13.51;38.35;99787.72;10391780;28;20227;-79
2022/09/30 20:17:36;;;;;;;3.43;1.30;;;;;;;13.23;38.85;99782.19;10373507;28;20248;-80
2022/09/30 20:22:59;;;;;;;3.50;1.30;;;;;;;12.92;39.67;99787.84;10391977;28;20282;-80
2022/09/30 20:28:22;;;;;;;1.33;1.00;;;;;;;13.51;38.53;99786.91;10385711;28;20244;-79
2022/09/30 20:33:45;;;;;;;1.53;1.10;;;;;;;12.81;40.13;99792.41;10379716;28;20277;-80
2022/09/30 20:39:07;;;;;;;3.23;1.23;;;;;;;13.36;38.92;99792.22;10378780;28;20290;-79
2022/09/30 20:44:29;;;;;;;2.40;1.23;;;;;;;13.07;39.12;99789.03;10392004;28;20584;-79
2022/09/30 20:49:51;;;;;;;1.60;0.90;;;;;;;12.49;40.86;99781.06;10382741;28;20285;-79
2022/09/30 20:55:13;;;;;;;2.80;1.07;;;;;;;12.80;40.09;99760.47;10392466;28;20277;-79
2022/09/30 21:00:38;;;;;;;1.50;1.20;;;;;;;12.77;40.28;99757.56;10406944;28;20251;-79
2022/09/30 21:06:01;;;;;;;1.83;1.30;;;;;;;12.48;41.05;99745.50;10408215;28;20231;-79
2022/09/30 21:11:24;;;;;;;1.60;1.00;;;;;;;13.29;39.45;99735.44;10403221;28;20668;-79
2022/09/30 21:16:45;;;;;;;9.73;1.13;;;;;;;12.71;40.40;99737.22;10406880;28;20623;-79
2022/09/30 21:22:08;;;;;;;1.80;1.20;;;;;;;12.68;40.39;99735.94;10405835;28;20224;-79
2022/09/30 21:27:30;;;;;;;2.97;1.20;;;;;;;13.57;38.93;99735.25;10408074;28;20252;-79
2022/09/30 21:32:53;;;;;;;2.70;1.30;;;;;;;13.28;39.52;99728.16;10408275;28;20228;-79
2022/09/30 21:38:16;;;;;;;4.03;1.70;;;;;;;12.75;40.94;99717.53;10408775;28;20251;-79
2022/09/30 21:43:38;;;;;;;1.90;1.30;;;;;;;12.39;41.18;99713.75;10414025;28;20595;-79
2022/09/30 21:49:14;;;;;;;2.30;1.50;;;;;;;12.23;41.44;99715.72;10416193;28;20485;-79
2022/09/30 21:54:38;;;;;;;1.87;1.23;;;;;;;12.28;41.36;99707.78;10407566;28;20251;-79
2022/09/30 22:00:01;;;;;;;1.23;0.90;;;;;;;12.93;39.96;99694.13;10410240;28;20270;-79
2022/09/30 22:05:23;;;;;;;3.53;1.50;;;;;;;12.21;41.15;99698.31;10416008;28;20532;-79
2022/09/30 22:10:46;;;;;;;0.73;0.73;;;;;;;12.74;40.44;99696.91;10415665;28;20254;-78
2022/09/30 22:16:08;;;;;;;2.37;1.00;;;;;;;12.84;40.14;99685.03;10398841;28;20216;-79
2022/09/30 22:21:32;;;;;;;1.37;1.27;;;;;;;12.72;40.79;99695.63;10398439;28;20252;-77
2022/09/30 22:26:56;;;;;;;2.43;1.20;;;;;;;12.34;41.18;99688.56;10412273;28;20277;-78
2022/09/30 22:32:18;;;;;;;4.47;1.90;;;;;;;12.37;41.45;99685.06;10410999;28;20270;-78
2022/09/30 22:43:22;;;;;;;2.27;1.27;;;;;;;12.62;41.23;99660.25;10413528;28;20506;-78
2022/09/30 22:48:44;;;;;;;1.87;1.17;;;;;;;12.46;41.19;99665.09;10411804;28;20224;-78
2022/09/30 22:54:07;;;;;;;2.60;1.27;;;;;;;13.04;40.52;99649.13;10405784;28;20926;-79
2022/09/30 22:59:29;;;;;;;6.30;1.90;;;;;;;12.84;41.35;99647.44;10412985;28;20240;-78
2022/09/30 23:04:51;;;;;;;2.60;1.40;;;;;;;12.71;41.60;99645.91;10411815;28;20665;-78
2022/09/30 23:10:13;;;;;;;5.80;1.50;;;;;;;12.48;41.88;99640.09;10411427;28;20238;-79
2022/09/30 23:15:36;;;;;;;3.20;1.63;;;;;;;12.85;41.33;99630.09;10407522;28;20335;-78
2022/09/30 23:21:04;;;;;;;2.60;1.40;;;;;;;13.16;41.12;99617.84;10412615;28;20251;-79
2022/09/30 23:26:27;;;;;;;1.80;1.70;;;;;;;13.14;41.32;99608.94;10411571;28;20258;-78
2022/09/30 23:37:55;;;;;;;3.43;1.70;;;;;;;12.48;42.13;99580.75;10400868;28;20247;-79
2022/09/30 23:43:21;;;;;;;2.70;1.60;;;;;;;12.78;41.81;99581.03;10411100;28;20200;-79
2022/09/30 23:48:44;;;;;;;2.47;1.67;;;;;;;12.24;43.05;99570.44;10411764;28;20201;-79
2022/09/30 23:54:06;;;;;;;2.93;1.63;;;;;;;12.26;43.50;99562.41;10410543;28;20208;-79
2022/09/30 23:59:29;;;;;;;1.60;1.50;;;;;;;12.81;41.73;99550.00;10397607;28;20313;-79
